KBNA/BNA METAR and TAF weather

Enter ICAO airport designator
Station Type Date Time Source
KBNA METAR 2019/12/08 18:53 UTC NOAA

KBNA 081853Z 18014G19KT 10SM BKN043 BKN065 BKN250 17/06 A3010 RMK AO2 SLP191 T01670061


Station Type Date Time Source
KBNA Decoded METAR 2019/12/08 18:53 UTC NOAA

NASHVILLE INTERNATIONAL AIRPORT, TN, United States (KBNA) 36-07N 086-41W 210M
Dec 08, 2019 - 01:53 PM EST / 2019.12.08 1853 UTC
Wind: from the S (180 degrees) at 16 MPH (14 KT) gusting to 22 MPH (19 KT):0
Visibility: 10 mile(s):0
Sky conditions: mostly cloudy
Temperature: 62.1 F (16.7 C)
Dew Point: 43.0 F (6.1 C)
Relative Humidity: 49%
Pressure (altimeter): 30.1 in. Hg (1019 hPa)
ob: KBNA 081853Z 18014G19KT 10SM BKN043 BKN065 BKN250 17/06 A3010 RMK AO2 SLP191 T01670061
cycle: 19

Station Type Date Time Source
KBNA TAF 2019/12/08 18:22 UTC NOAA

TAF KBNA 081720Z 0818/0918 18009G18KT P6SM OVC050
FM090400 17012G20KT P6SM VCSH OVC025

Example: see airport list